Time;durP1;ratioP1;P1;durP2;ratioP2;P2;SDS_P1;SDS_P2;PMS_P1;PMS_P2;Temp;Humidity;BMP_temperature;BMP_pressure;BME280_temperature;BME280_humidity;BME280_pressure;Samples;Min_cycle;Max_cycle;Signal;HPM_P1;HPM_P2
2023/01/09 00:02:17;;;;;;;6.30;3.70;;;;;;;;;;6015303;23;20422;-76
2023/01/09 00:04:49;;;;;;;4.90;3.70;;;;;;;;;;6015475;23;20408;-76
2023/01/09 00:07:19;;;;;;;4.40;3.37;;;5.30;99.90;;;;;;6050027;23;20483;-76
2023/01/09 00:09:49;;;;;;;4.70;3.57;;;5.30;99.90;;;;;;6015287;23;20432;-76
2023/01/09 00:12:19;;;;;;;4.90;3.30;;;;;;;;;;6015257;23;20934;-76
2023/01/09 00:14:51;;;;;;;4.90;4.40;;;5.30;99.90;;;;;;6015593;23;20451;-76
2023/01/09 00:17:22;;;;;;;4.87;3.90;;;6.80;99.90;;;;;;6015967;23;20479;-76
2023/01/09 00:19:52;;;;;;;4.60;4.03;;;5.60;99.90;;;;;;6015336;23;20420;-76
2023/01/09 00:22:24;;;;;;;5.77;3.70;;;5.30;99.90;;;;;;6015419;23;20428;-76
2023/01/09 00:24:53;;;;;;;4.60;3.40;;;5.30;99.90;;;;;;6051129;23;20391;-76
2023/01/09 00:27:21;;;;;;;9.10;3.77;;;5.30;99.90;;;;;;6040337;23;20442;-75
2023/01/09 00:29:49;;;;;;;4.27;3.63;;;5.30;99.90;;;;;;6015210;23;20931;-75
2023/01/09 00:32:19;;;;;;;5.70;4.20;;;5.30;99.90;;;;;;6015342;23;20475;-76
2023/01/09 00:34:47;;;;;;;4.90;3.70;;;5.30;99.90;;;;;;6014974;23;20443;-75
2023/01/09 00:37:17;;;;;;;6.77;3.70;;;5.30;99.90;;;;;;6014951;23;20530;-75
2023/01/09 00:39:45;;;;;;;5.10;4.60;;;5.30;99.90;;;;;;6014826;23;20427;-75
2023/01/09 00:42:17;;;;;;;5.77;3.73;;;5.30;99.90;;;;;;6049905;23;20802;-76
2023/01/09 00:44:49;;;;;;;4.80;3.83;;;5.40;99.90;;;;;;6014968;23;20440;-76
2023/01/09 00:47:22;;;;;;;4.40;3.60;;;5.40;99.90;;;;;;6014853;23;20446;-75
2023/01/09 00:49:52;;;;;;;4.83;3.43;;;5.40;99.90;;;;;;6029809;23;20435;-76
2023/01/09 00:52:22;;;;;;;5.13;3.40;;;5.40;99.90;;;;;;6038471;23;20519;-75
2023/01/09 00:54:51;;;;;;;4.40;3.57;;;5.40;99.90;;;;;;6038963;23;20745;-76
2023/01/09 00:57:19;;;;;;;4.30;3.20;;;5.40;99.90;;;;;;6038205;23;20908;-76
2023/01/09 00:59:47;;;;;;;4.37;3.53;;;5.40;99.90;;;;;;6038377;23;20410;-76
2023/01/09 01:02:15;;;;;;;5.70;4.43;;;5.40;99.90;;;;;;6038425;23;20761;-76
2023/01/09 01:07:38;;;;;;;5.67;3.60;;;5.50;99.90;;;;;;6040211;23;20504;-76
2023/01/09 01:10:09;;;;;;;4.80;3.13;;;5.50;99.90;;;;;;6038356;23;20423;-76
2023/01/09 01:12:38;;;;;;;4.30;3.20;;;5.50;99.90;;;;;;6038377;23;20764;-76
2023/01/09 01:15:08;;;;;;;4.30;3.53;;;5.50;99.90;;;;;;6038190;23;20416;-76
2023/01/09 01:17:37;;;;;;;4.80;3.57;;;5.60;99.90;;;;;;6038251;23;20452;-76
2023/01/09 01:20:07;;;;;;;5.40;4.03;;;5.60;99.90;;;;;;6038122;23;20950;-76
2023/01/09 01:22:37;;;;;;;5.47;3.53;;;5.60;99.90;;;;;;6038254;23;20433;-76
2023/01/09 01:25:06;;;;;;;4.50;3.90;;;5.70;99.90;;;;;;6039977;23;20496;-76
2023/01/09 01:27:34;;;;;;;5.70;3.90;;;5.70;99.90;;;;;;6038225;23;20480;-76
2023/01/09 01:30:02;;;;;;;6.67;4.23;;;5.70;99.90;;;;;;6038142;23;20805;-76
2023/01/09 01:32:31;;;;;;;6.30;4.80;;;5.70;99.90;;;;;;6049381;23;20495;-76
2023/01/09 01:34:59;;;;;;;5.43;4.00;;;5.80;99.90;;;;;;6040102;23;20483;-76
2023/01/09 01:37:27;;;;;;;6.03;4.80;;;5.80;99.90;;;;;;6037981;23;20531;-76
2023/01/09 01:39:57;;;;;;;4.97;4.47;;;5.90;99.90;;;;;;6038333;23;20471;-76
2023/01/09 01:42:25;;;;;;;6.17;4.70;;;5.90;99.90;;;;;;6049350;23;20876;-76
2023/01/09 01:45:06;;;;;;;5.03;4.33;;;5.90;99.90;;;;;;6049239;23;20885;-76
2023/01/09 01:47:42;;;;;;;6.43;4.40;;;6.00;99.90;;;;;;6038309;23;20406;-76
2023/01/09 01:50:19;;;;;;;6.63;5.00;;;6.00;99.90;;;;;;6042017;23;20428;-76
2023/01/09 01:52:53;;;;;;;6.37;4.80;;;6.00;99.90;;;;;;6054184;23;20413;-76
2023/01/09 01:55:23;;;;;;;7.37;5.10;;;6.00;99.90;;;;;;6042756;23;20411;-76
2023/01/09 01:57:58;;;;;;;4.80;4.30;;;6.10;99.90;;;;;;6040621;23;20451;-77
2023/01/09 02:00:33;;;;;;;5.10;4.53;;;6.10;99.90;;;;;;6042119;23;20490;-76
2023/01/09 02:03:02;;;;;;;6.20;5.00;;;6.10;99.90;;;;;;6039984;23;20421;-77
2023/01/09 02:05:31;;;;;;;5.67;4.93;;;6.20;99.90;;;;;;6041854;23;20499;-77
2023/01/09 02:07:59;;;;;;;6.73;4.33;;;6.20;99.90;;;;;;6039943;23;20514;-76
2023/01/09 02:10:29;;;;;;;6.80;5.47;;;6.20;99.90;;;;;;6039916;23;20422;-77
2023/01/09 02:12:57;;;;;;;6.43;4.90;;;6.30;99.90;;;;;;6039864;23;20910;-77
2023/01/09 02:15:27;;;;;;;6.20;5.00;;;6.30;99.90;;;;;;6050893;23;20420;-77
2023/01/09 02:18:34;;;;;;;5.57;4.90;;;6.30;99.90;;;;;;6051065;23;20436;-77
2023/01/09 02:21:09;;;;;;;5.80;5.00;;;6.40;99.90;;;;;;6040590;23;20841;-76
2023/01/09 02:24:10;;;;;;;5.70;4.80;;;6.40;99.90;;;;;;6051153;23;20382;-77
2023/01/09 02:26:59;;;;;;;6.67;4.93;;;6.40;99.90;;;;;;6039858;23;20432;-76
2023/01/09 02:30:00;;;;;;;7.73;4.90;;;6.40;99.90;;;;;;6050961;23;20381;-77
2023/01/09 02:32:44;;;;;;;6.87;5.00;;;6.50;99.90;;;;;;6023584;23;20518;-77
2023/01/09 02:35:27;;;;;;;5.83;5.23;;;6.50;99.90;;;;;;6050719;23;20389;-77
2023/01/09 02:38:06;;;;;;;6.90;5.50;;;6.60;99.90;;;;;;6051157;23;20789;-77
2023/01/09 02:40:40;;;;;;;6.17;5.57;;;6.60;99.90;;;;;;6039841;23;20418;-77
2023/01/09 02:43:10;;;;;;;6.57;5.67;;;6.70;99.90;;;;;;6039879;23;20417;-77
2023/01/09 02:45:38;;;;;;;7.37;6.03;;;6.70;99.90;;;;;;6039816;23;20444;-77
2023/01/09 02:48:10;;;;;;;6.70;6.00;;;6.70;99.90;;;;;;6050802;23;20887;-77
2023/01/09 02:50:43;;;;;;;6.60;6.00;;;6.80;99.90;;;;;;6050993;23;20406;-77
2023/01/09 02:53:39;;;;;;;8.53;6.87;;;6.80;99.90;;;;;;6041513;23;20401;-77
2023/01/09 02:56:20;;;;;;;7.73;6.90;;;6.80;99.90;;;;;;6041651;23;20799;-76
2023/01/09 02:59:07;;;;;;;7.60;6.57;;;6.90;99.90;;;;;;6041578;23;20437;-77
2023/01/09 03:01:46;;;;;;;7.20;6.50;;;6.90;99.90;;;;;;6041387;23;20515;-77
2023/01/09 03:04:27;;;;;;;6.53;5.90;;;6.90;99.90;;;;;;6039880;23;20413;-77
2023/01/09 03:07:00;;;;;;;7.40;6.20;;;6.90;99.90;;;;;;6040023;23;20434;-77
2023/01/09 03:09:32;;;;;;;5.63;5.13;;;7.00;99.90;;;;;;6051330;23;20399;-76
2023/01/09 03:12:13;;;;;;;6.90;6.20;;;7.00;99.90;;;;;;6039499;23;20417;-77
2023/01/09 03:14:47;;;;;;;5.70;5.20;;;7.00;99.90;;;;;;6039376;23;20427;-77
2023/01/09 03:17:19;;;;;;;7.23;5.43;;;7.00;99.90;;;;;;6050287;23;20511;-77
2023/01/09 03:19:51;;;;;;;5.90;4.70;;;7.00;99.90;;;;;;6050764;23;20391;-77
2023/01/09 03:22:20;;;;;;;6.00;4.70;;;7.10;99.90;;;;;;6041175;23;20398;-77
2023/01/09 03:24:48;;;;;;;5.87;5.13;;;7.10;99.90;;;;;;6041135;23;20426;-77
2023/01/09 03:27:16;;;;;;;5.70;4.87;;;7.10;99.90;;;;;;6050777;23;20431;-77
2023/01/09 03:29:44;;;;;;;6.63;4.97;;;7.10;99.90;;;;;;6050566;23;20499;-77
2023/01/09 03:32:13;;;;;;;5.30;4.27;;;7.10;99.90;;;;;;6039377;23;20798;-77
2023/01/09 03:34:41;;;;;;;5.70;5.10;;;7.20;99.90;;;;;;6039334;23;20453;-76
2023/01/09 03:37:10;;;;;;;5.60;4.80;;;7.10;99.90;;;;;;6039025;23;20458;-75
2023/01/09 03:39:39;;;;;;;5.50;4.50;;;7.20;99.90;;;;;;6050438;23;20830;-77
2023/01/09 03:42:07;;;;;;;5.50;5.00;;;7.20;99.90;;;;;;6050098;23;20789;-75
2023/01/09 03:44:35;;;;;;;6.50;4.63;;;7.20;99.90;;;;;;6039065;23;20428;-77
2023/01/09 03:47:03;;;;;;;5.70;4.93;;;7.20;99.90;;;;;;6039162;23;20778;-75
2023/01/09 03:49:32;;;;;;;5.40;4.47;;;7.20;99.90;;;;;;6038951;23;20427;-75
2023/01/09 03:52:00;;;;;;;5.63;4.97;;;7.20;99.90;;;;;;6039018;23;20427;-75
2023/01/09 03:54:29;;;;;;;5.50;5.00;;;7.20;99.90;;;;;;6038965;23;20427;-76
2023/01/09 03:56:57;;;;;;;6.10;5.50;;;7.20;99.90;;;;;;6038910;23;20483;-76
2023/01/09 03:59:26;;;;;;;5.57;4.60;;;7.20;99.90;;;;;;6040205;23;20521;-77
2023/01/09 04:01:54;;;;;;;5.50;5.00;;;7.20;99.90;;;;;;6038970;23;20422;-77
2023/01/09 04:04:22;;;;;;;6.70;6.10;;;7.30;99.90;;;;;;6038997;23;20462;-75
2023/01/09 04:06:50;;;;;;;7.30;6.00;;;7.30;99.90;;;;;;6038778;23;20556;-75
2023/01/09 04:09:18;;;;;;;6.10;5.50;;;7.30;99.90;;;;;;6039018;23;20757;-76
2023/01/09 04:11:48;;;;;;;10.27;9.27;;;7.30;99.90;;;;;;6038575;23;20831;-77
2023/01/09 04:14:16;;;;;;;7.00;6.30;;;7.30;99.90;;;;;;6049789;23;20408;-76
2023/01/09 04:16:44;;;;;;;8.73;7.90;;;7.30;99.90;;;;;;6038752;23;20446;-77
2023/01/09 04:19:12;;;;;;;6.47;5.47;;;7.30;99.90;;;;;;6049755;23;20439;-76
2023/01/09 04:21:40;;;;;;;6.40;5.80;;;7.30;99.90;;;;;;6040190;23;20410;-75
2023/01/09 04:24:09;;;;;;;5.67;5.07;;;7.30;99.90;;;;;;6038640;23;20919;-77
2023/01/09 04:26:37;;;;;;;6.03;5.50;;;7.30;99.90;;;;;;6038537;23;20438;-77
2023/01/09 04:29:06;;;;;;;6.57;5.97;;;7.30;99.90;;;;;;6049718;23;20909;-77
2023/01/09 04:31:34;;;;;;;6.23;5.63;;;7.30;99.90;;;;;;6049804;23;20490;-77
2023/01/09 04:34:02;;;;;;;6.10;5.50;;;7.30;99.90;;;;;;6040470;23;20809;-76
2023/01/09 04:36:33;;;;;;;6.47;5.87;;;7.30;99.90;;;;;;6049641;23;20434;-77
2023/01/09 04:39:01;;;;;;;6.80;6.17;;;7.30;99.90;;;;;;6038659;23;20441;-77
2023/01/09 04:44:16;;;;;;;8.47;6.73;;;7.30;99.90;;;;;;6040563;23;20400;-77
2023/01/09 04:46:45;;;;;;;6.80;6.07;;;7.30;99.90;;;;;;6039250;23;20961;-77
2023/01/09 04:49:13;;;;;;;6.57;5.97;;;7.20;99.90;;;;;;6038228;23;20442;-77
2023/01/09 04:51:41;;;;;;;6.83;6.13;;;7.30;99.90;;;;;;6038402;23;20918;-77
2023/01/09 04:54:10;;;;;;;6.73;6.13;;;7.30;99.90;;;;;;6038480;23;20509;-77
2023/01/09 04:56:38;;;;;;;7.30;6.60;;;7.20;99.90;;;;;;6038295;23;20499;-77
2023/01/09 04:59:07;;;;;;;6.87;6.20;;;7.20;99.90;;;;;;6038324;23;20784;-76
2023/01/09 05:01:37;;;;;;;6.40;5.80;;;7.20;99.90;;;;;;6038374;23;20906;-77
2023/01/09 05:04:06;;;;;;;7.47;6.77;;;7.20;99.90;;;;;;6039748;23;20410;-77
2023/01/09 05:06:34;;;;;;;6.13;5.53;;;7.20;99.90;;;;;;6038308;23;20959;-77
2023/01/09 05:09:03;;;;;;;6.77;6.07;;;7.20;99.90;;;;;;6038380;23;20516;-77
2023/01/09 05:11:31;;;;;;;7.13;6.10;;;7.20;99.90;;;;;;6038236;23;20413;-76
2023/01/09 05:13:59;;;;;;;7.67;5.90;;;7.20;99.90;;;;;;6038223;23;20438;-77
2023/01/09 05:16:28;;;;;;;10.20;6.20;;;7.20;99.90;;;;;;6038184;23;20514;-77
2023/01/09 05:18:59;;;;;;;6.27;5.67;;;7.20;99.90;;;;;;6038190;23;20441;-76
2023/01/09 05:21:27;;;;;;;6.07;5.47;;;7.20;99.90;;;;;;6038332;23;20517;-76
2023/01/09 05:23:55;;;;;;;6.40;5.60;;;7.20;99.90;;;;;;6049370;23;20949;-77
2023/01/09 05:26:24;;;;;;;7.83;6.07;;;7.20;99.90;;;;;;6038229;23;20445;-77
2023/01/09 05:28:52;;;;;;;5.30;4.73;;;7.20;99.90;;;;;;6049326;23;20404;-77
2023/01/09 05:31:20;;;;;;;5.33;4.83;;;7.10;99.90;;;;;;6049324;23;20403;-76
2023/01/09 05:33:49;;;;;;;5.60;4.93;;;7.20;99.90;;;;;;6049203;23;20886;-76
2023/01/09 05:36:18;;;;;;;5.47;4.97;;;7.10;99.90;;;;;;6039934;23;20442;-76
2023/01/09 05:38:46;;;;;;;6.60;5.13;;;7.10;99.90;;;;;;6049072;23;20505;-76
2023/01/09 05:41:14;;;;;;;5.30;4.30;;;7.10;99.90;;;;;;6049212;23;20403;-77
2023/01/09 05:43:45;;;;;;;4.30;3.73;;;7.00;99.90;;;;;;6049531;23;20888;-77
2023/01/09 05:46:13;;;;;;;4.63;3.60;;;7.00;99.90;;;;;;6038216;23;20441;-76
2023/01/09 05:48:43;;;;;;;5.87;4.10;;;7.00;99.90;;;;;;6038013;23;20435;-77
2023/01/09 05:51:11;;;;;;;5.93;4.00;;;7.00;99.90;;;;;;6049347;23;20950;-75
2023/01/09 05:53:41;;;;;;;4.53;3.43;;;7.00;99.90;;;;;;6038223;23;20446;-77
2023/01/09 05:56:09;;;;;;;4.83;4.10;;;6.90;99.90;;;;;;6038012;23;20446;-76
2023/01/09 05:58:38;;;;;;;5.30;4.10;;;6.90;99.90;;;;;;6049062;23;20410;-76
2023/01/09 06:01:07;;;;;;;5.97;4.50;;;6.80;99.90;;;;;;6037951;23;20430;-76
2023/01/09 06:03:35;;;;;;;5.97;4.77;;;6.90;99.90;;;;;;6038082;23;20521;-76
2023/01/09 06:06:04;;;;;;;6.20;4.83;;;6.80;99.90;;;;;;6037914;23;20445;-76
2023/01/09 06:08:32;;;;;;;6.63;5.60;;;6.80;99.90;;;;;;6038038;23;20505;-76
2023/01/09 06:11:02;;;;;;;7.20;5.83;;;6.80;99.90;;;;;;6037996;23;20440;-76
2023/01/09 06:13:30;;;;;;;7.30;6.20;;;6.80;99.90;;;;;;6038010;23;20427;-77
2023/01/09 06:15:58;;;;;;;7.70;5.83;;;6.80;99.90;;;;;;6049079;23;20424;-76
2023/01/09 06:18:26;;;;;;;7.50;6.70;;;6.70;99.90;;;;;;6039919;23;20437;-77
2023/01/09 06:20:54;;;;;;;8.37;6.50;;;6.70;99.90;;;;;;6049870;23;20913;-76
2023/01/09 06:23:22;;;;;;;9.80;7.50;;;6.70;99.90;;;;;;6037992;23;20959;-77
2023/01/09 06:25:51;;;;;;;10.47;7.10;;;;;;;;;;6038607;23;20445;-76
2023/01/09 06:28:20;;;;;;;8.90;8.00;;;6.70;99.90;;;;;;6037912;23;20749;-76
2023/01/09 06:30:50;;;;;;;8.13;6.97;;;6.60;99.90;;;;;;6049255;23;20991;-76
2023/01/09 06:33:19;;;;;;;8.97;7.43;;;6.60;99.90;;;;;;6048960;23;20468;-76
2023/01/09 06:35:47;;;;;;;9.73;8.50;;;6.60;99.90;;;;;;6040371;23;20438;-77
2023/01/09 06:38:15;;;;;;;11.77;9.70;;;6.60;99.90;;;;;;6050766;23;20452;-76
2023/01/09 06:40:43;;;;;;;11.17;9.20;;;6.50;99.90;;;;;;6039440;23;20445;-76
2023/01/09 06:43:11;;;;;;;10.60;9.50;;;6.50;99.90;;;;;;6050990;23;20442;-77
2023/01/09 06:45:42;;;;;;;11.27;9.87;;;6.50;99.90;;;;;;6039376;23;20443;-76
2023/01/09 06:48:10;;;;;;;11.30;9.83;;;6.50;99.90;;;;;;6041330;23;20410;-76
2023/01/09 06:50:38;;;;;;;11.57;10.40;;;6.50;99.90;;;;;;6016439;23;20939;-76
2023/01/09 06:53:07;;;;;;;12.83;11.50;;;6.40;99.90;;;;;;6050844;23;20457;-76
2023/01/09 06:55:35;;;;;;;12.57;11.27;;;6.40;99.90;;;;;;6015780;23;20432;-76
2023/01/09 06:58:03;;;;;;;12.67;11.20;;;6.40;99.90;;;;;;6015770;23;20431;-77
2023/01/09 07:00:31;;;;;;;14.10;11.70;;;6.40;99.90;;;;;;6015729;23;20559;-77
2023/01/09 07:03:01;;;;;;;13.60;12.30;;;6.40;99.90;;;;;;6015742;23;20817;-76
2023/01/09 07:05:30;;;;;;;14.83;12.60;;;6.30;99.90;;;;;;6015788;23;20758;-76
2023/01/09 07:07:58;;;;;;;12.67;9.80;;;6.30;99.90;;;;;;6015891;23;20419;-77
2023/01/09 07:10:27;;;;;;;13.97;12.57;;;6.30;99.90;;;;;;6015719;23;20418;-76
2023/01/09 07:12:55;;;;;;;13.10;11.70;;;6.30;99.90;;;;;;6050422;23;20882;-76
2023/01/09 07:15:23;;;;;;;13.50;11.70;;;6.30;99.90;;;;;;6016182;23;20940;-76
2023/01/09 07:17:51;;;;;;;13.93;11.73;;;6.30;99.90;;;;;;6050518;23;20492;-76
2023/01/09 07:20:21;;;;;;;14.00;12.57;;;6.20;99.90;;;;;;6015504;23;20436;-77
2023/01/09 07:22:49;;;;;;;14.30;12.80;;;6.20;99.90;;;;;;6015629;23;20421;-77
2023/01/09 07:25:18;;;;;;;15.37;13.63;;;6.20;99.90;;;;;;6015531;23;20455;-76
2023/01/09 07:27:46;;;;;;;15.57;13.90;;;6.20;99.90;;;;;;6040634;23;20461;-77
2023/01/09 07:30:15;;;;;;;16.43;14.73;;;6.20;99.90;;;;;;6015554;23;20408;-76
2023/01/09 07:32:43;;;;;;;16.80;14.90;;;6.10;99.90;;;;;;6015408;23;20422;-76
2023/01/09 07:35:12;;;;;;;16.80;14.40;;;6.10;99.90;;;;;;6050117;23;20408;-76
2023/01/09 07:37:41;;;;;;;18.10;15.40;;;6.10;99.90;;;;;;6015460;23;20754;-76
2023/01/09 07:40:10;;;;;;;15.80;14.20;;;6.10;99.90;;;;;;6015452;23;20780;-77
2023/01/09 07:42:38;;;;;;;16.57;14.87;;;6.10;99.90;;;;;;6050232;23;20797;-76
2023/01/09 07:45:08;;;;;;;16.60;14.73;;;6.00;99.90;;;;;;6015230;23;20927;-77
2023/01/09 07:47:36;;;;;;;17.40;15.70;;;6.00;99.90;;;;;;6015520;23;20423;-78
2023/01/09 07:50:04;;;;;;;17.93;15.30;;;6.10;99.90;;;;;;6033164;23;20468;-77
2023/01/09 07:52:33;;;;;;;19.17;16.03;;;6.10;99.90;;;;;;6040258;23;20416;-77
2023/01/09 07:55:02;;;;;;;18.50;15.73;;;6.10;99.90;;;;;;6041754;23;20444;-77
2023/01/09 07:57:30;;;;;;;17.17;14.70;;;6.10;99.90;;;;;;6050547;23;20408;-76
2023/01/09 08:00:02;;;;;;;16.73;14.50;;;6.10;99.90;;;;;;6049953;23;20441;-76
2023/01/09 08:02:38;;;;;;;16.73;15.00;;;6.10;99.90;;;;;;6041006;23;20857;-76
2023/01/09 08:05:12;;;;;;;17.47;15.67;;;6.10;99.90;;;;;;6050204;23;20411;-77
2023/01/09 08:07:40;;;;;;;16.10;13.00;;;6.20;99.90;;;;;;6039291;23;20414;-76
2023/01/09 08:10:11;;;;;;;17.50;13.70;;;6.20;99.90;;;;;;6039689;23;20472;-76
2023/01/09 08:12:43;;;;;;;16.57;14.20;;;6.20;99.90;;;;;;6039031;23;20421;-76
2023/01/09 08:15:12;;;;;;;16.80;13.13;;;6.20;99.90;;;;;;6038835;23;20416;-76
2023/01/09 08:17:42;;;;;;;16.70;14.63;;;6.20;99.90;;;;;;6040016;23;20413;-77
2023/01/09 08:20:11;;;;;;;13.43;12.10;;;6.20;99.90;;;;;;6038845;23;20452;-77
2023/01/09 08:22:41;;;;;;;15.43;12.97;;;6.20;99.90;;;;;;6049748;23;20404;-77
2023/01/09 08:25:11;;;;;;;14.47;11.97;;;6.30;99.90;;;;;;6038676;23;20979;-77
2023/01/09 08:27:39;;;;;;;15.93;12.47;;;6.30;99.90;;;;;;6049960;23;20460;-77
2023/01/09 08:30:09;;;;;;;19.67;12.60;;;6.30;99.90;;;;;;6038662;23;20459;-77
2023/01/09 08:32:37;;;;;;;13.30;11.90;;;6.30;99.90;;;;;;6040089;23;20498;-77
2023/01/09 08:35:07;;;;;;;14.93;11.93;;;6.30;99.90;;;;;;6038518;23;20505;-77
2023/01/09 08:37:35;;;;;;;14.10;11.37;;;6.30;99.90;;;;;;6040200;23;20925;-76
2023/01/09 08:40:04;;;;;;;14.60;11.20;;;6.30;99.90;;;;;;6038494;23;20949;-76
2023/01/09 08:48:05;;;;;;;13.70;10.73;;;6.40;99.90;;;;;;6040094;23;20487;-77
2023/01/09 08:50:33;;;;;;;13.53;10.77;;;6.40;99.90;;;;;;6038355;23;20432;-77
2023/01/09 08:53:01;;;;;;;15.13;11.07;;;6.40;99.90;;;;;;6038495;23;20422;-77
2023/01/09 08:55:29;;;;;;;15.60;11.33;;;6.40;99.90;;;;;;6049711;23;20440;-77
2023/01/09 08:57:59;;;;;;;15.40;10.80;;;6.40;99.90;;;;;;6038190;23;20420;-77
2023/01/09 09:00:28;;;;;;;14.70;10.47;;;6.40;99.90;;;;;;6038303;23;20473;-77
2023/01/09 09:02:58;;;;;;;18.67;14.10;;;6.40;99.90;;;;;;6040199;23;20415;-77
2023/01/09 09:05:29;;;;;;;14.30;10.90;;;6.50;99.90;;;;;;6050009;23;20421;-77
2023/01/09 09:07:58;;;;;;;15.93;10.50;;;6.50;99.90;;;;;;6038433;23;20465;-77
2023/01/09 09:10:29;;;;;;;12.73;10.83;;;6.50;99.90;;;;;;6049361;23;20788;-77
2023/01/09 09:13:00;;;;;;;12.10;9.53;;;6.50;99.90;;;;;;6038231;23;20418;-77
2023/01/09 09:15:29;;;;;;;14.73;10.37;;;6.50;99.90;;;;;;6038355;23;20445;-77
2023/01/09 09:17:59;;;;;;;12.67;9.93;;;6.50;99.90;;;;;;6038327;23;20424;-77
2023/01/09 09:20:30;;;;;;;12.90;10.10;;;6.50;99.90;;;;;;6038373;23;20930;-77
2023/01/09 09:22:58;;;;;;;13.63;10.93;;;6.50;99.90;;;;;;6038350;23;20413;-77
2023/01/09 09:25:29;;;;;;;11.00;9.90;;;6.50;99.90;;;;;;6040165;23;20444;-76
2023/01/09 09:27:59;;;;;;;14.57;11.10;;;6.60;99.90;;;;;;6049353;23;20452;-77
2023/01/09 09:30:28;;;;;;;13.70;9.80;;;6.60;99.90;;;;;;6049749;23;20406;-77
2023/01/09 09:32:56;;;;;;;14.73;11.50;;;6.60;99.90;;;;;;6038088;23;20420;-77
2023/01/09 09:35:24;;;;;;;11.43;9.67;;;6.60;99.90;;;;;;6038004;23;20456;-77
2023/01/09 09:37:54;;;;;;;15.17;10.73;;;6.70;99.90;;;;;;6038329;23;20420;-77
2023/01/09 09:40:34;;;;;;;12.70;10.20;;;6.70;99.90;;;;;;6038103;23;20485;-76
2023/01/09 09:46:40;;;;;;;12.40;10.07;;;6.80;99.90;;;;;;6039976;23;20502;-77
2023/01/09 09:49:14;;;;;;;13.23;9.87;;;6.80;99.90;;;;;;6037925;23;20516;-76
2023/01/09 09:51:56;;;;;;;11.30;9.97;;;6.80;99.90;;;;;;6049932;23;20408;-76
2023/01/09 09:54:32;;;;;;;16.00;10.97;;;6.80;99.90;;;;;;6038245;23;20423;-77
2023/01/09 09:57:04;;;;;;;14.90;12.50;;;6.80;99.90;;;;;;6038006;23;20473;-77
2023/01/09 09:59:36;;;;;;;13.63;10.73;;;6.90;99.90;;;;;;6049950;23;20380;-76
2023/01/09 10:02:21;;;;;;;16.27;11.90;;;6.90;99.90;;;;;;6039994;23;20433;-76
2023/01/09 10:04:56;;;;;;;17.93;12.57;;;6.90;99.90;;;;;;6038723;23;20443;-76
2023/01/09 10:07:28;;;;;;;16.80;12.43;;;7.00;99.90;;;;;;6038250;23;20445;-77
2023/01/09 10:10:00;;;;;;;15.40;13.80;;;7.00;99.90;;;;;;6049689;23;20418;-75
2023/01/09 10:12:30;;;;;;;15.70;13.07;;;7.00;99.90;;;;;;6040070;23;20896;-77
2023/01/09 10:15:02;;;;;;;15.10;13.40;;;7.80;99.90;;;;;;6040862;23;20425;-77
2023/01/09 10:18:02;;;;;;;17.63;14.70;;;7.10;99.90;;;;;;6040281;23;20497;-76
2023/01/09 10:20:49;;;;;;;18.17;13.93;;;7.10;99.90;;;;;;6040110;23;20504;-75
2023/01/09 10:23:42;;;;;;;16.13;14.47;;;7.10;99.90;;;;;;6039867;23;20418;-77
2023/01/09 10:26:16;;;;;;;18.90;14.20;;;7.20;99.90;;;;;;6040046;23;20548;-77
2023/01/09 10:29:13;;;;;;;16.47;14.20;;;7.20;99.90;;;;;;6039967;23;20984;-76
2023/01/09 10:31:52;;;;;;;17.87;16.03;;;7.20;99.90;;;;;;6022773;23;20427;-77
2023/01/09 10:34:35;;;;;;;17.87;15.07;;;7.30;99.90;;;;;;6039723;23;20809;-76
2023/01/09 10:37:10;;;;;;;18.50;14.67;;;7.30;99.90;;;;;;6039648;23;20477;-77
2023/01/09 10:39:44;;;;;;;15.80;13.67;;;7.30;99.90;;;;;;6039821;23;20573;-77
2023/01/09 10:42:21;;;;;;;17.93;14.53;;;7.30;99.90;;;;;;6039851;23;20535;-77
2023/01/09 10:44:56;;;;;;;14.50;13.10;;;7.40;99.90;;;;;;6039613;23;20743;-76
2023/01/09 10:47:30;;;;;;;17.17;13.47;;;7.40;99.90;;;;;;6040557;23;20918;-77
2023/01/09 10:49:59;;;;;;;16.03;14.13;;;7.40;99.90;;;;;;6039493;23;20438;-76
2023/01/09 10:52:35;;;;;;;14.93;13.57;;;7.40;99.90;;;;;;6050925;23;20804;-77
2023/01/09 10:55:14;;;;;;;13.60;12.20;;;7.50;99.90;;;;;;6039577;23;20407;-77
2023/01/09 10:57:44;;;;;;;15.53;12.87;;;7.50;99.90;;;;;;6041086;23;20874;-77
2023/01/09 11:00:19;;;;;;;14.90;13.37;;;7.60;99.90;;;;;;6040508;23;20718;-77
2023/01/09 11:02:53;;;;;;;14.13;12.63;;;7.60;99.90;;;;;;6039450;23;20490;-76
2023/01/09 11:05:24;;;;;;;13.73;12.33;;;7.60;99.90;;;;;;6039374;23;20797;-77
2023/01/09 11:07:58;;;;;;;15.67;12.90;;;7.70;99.90;;;;;;6050774;23;20481;-76
2023/01/09 11:10:45;;;;;;;13.60;12.30;;;7.70;99.90;;;;;;6039425;23;20411;-77
2023/01/09 11:13:17;;;;;;;13.47;11.67;;;7.70;99.90;;;;;;6040496;23;20413;-77
2023/01/09 11:15:45;;;;;;;14.87;11.90;;;7.70;99.90;;;;;;6039678;23;20469;-77
2023/01/09 11:18:23;;;;;;;14.00;12.17;;;7.80;99.90;;;;;;6039811;23;20436;-77
2023/01/09 11:20:52;;;;;;;13.40;11.90;;;7.80;99.90;;;;;;6051472;23;20380;-77
2023/01/09 11:23:31;;;;;;;12.23;10.93;;;7.80;99.90;;;;;;6041136;23;20489;-77
2023/01/09 11:26:01;;;;;;;12.27;11.03;;;7.80;99.90;;;;;;6039286;23;20443;-77
2023/01/09 11:28:29;;;;;;;15.10;11.70;;;7.80;99.90;;;;;;6050324;23;20465;-77
2023/01/09 11:31:00;;;;;;;12.53;10.70;;;7.80;99.90;;;;;;6040664;23;20409;-76
2023/01/09 11:33:34;;;;;;;13.07;10.10;;;7.80;99.90;;;;;;6041135;23;20450;-77
2023/01/09 11:36:06;;;;;;;15.50;10.93;;;7.80;99.90;;;;;;6039116;23;20441;-77
2023/01/09 11:38:49;;;;;;;13.13;11.27;;;7.80;99.90;;;;;;6050535;23;20391;-77
2023/01/09 11:41:20;;;;;;;12.37;11.17;;;7.80;99.90;;;;;;6039184;23;20412;-77
2023/01/09 11:43:50;;;;;;;12.47;10.23;;;7.80;99.90;;;;;;6039076;23;20435;-75
2023/01/09 11:46:33;;;;;;;12.80;11.50;;;7.80;99.90;;;;;;6050494;23;20923;-77
2023/01/09 11:49:06;;;;;;;12.47;11.23;;;7.80;99.90;;;;;;6038796;23;20498;-76
2023/01/09 11:51:35;;;;;;;13.53;11.10;;;7.80;99.90;;;;;;6039044;23;20451;-77
2023/01/09 11:54:16;;;;;;;11.93;10.70;;;7.80;99.90;;;;;;6050547;23;20944;-75
2023/01/09 11:56:44;;;;;;;12.77;11.47;;;7.80;99.90;;;;;;6050272;23;20505;-76
2023/01/09 11:59:16;;;;;;;12.50;11.20;;;7.80;99.90;;;;;;6049942;23;20400;-76
2023/01/09 12:02:34;;;;;;;15.27;12.17;;;7.80;99.90;;;;;;6049874;23;20462;-77
2023/01/09 12:05:12;;;;;;;14.23;11.70;;;7.80;99.90;;;;;;5990810;24;20436;-76
2023/01/09 12:07:54;;;;;;;12.50;11.33;;;7.80;99.90;;;;;;5958378;24;20513;-76
2023/01/09 12:10:37;;;;;;;12.53;11.20;;;7.80;99.90;;;;;;6006798;23;20769;-77
2023/01/09 12:13:18;;;;;;;11.97;10.30;;;7.80;99.90;;;;;;6040687;23;20486;-77
2023/01/09 12:15:57;;;;;;;13.87;10.67;;;7.80;99.90;;;;;;6038736;23;20434;-77
2023/01/09 12:18:54;;;;;;;12.20;10.90;;;7.80;99.90;;;;;;6050043;23;20840;-75
2023/01/09 12:21:33;;;;;;;11.47;10.27;;;7.80;99.90;;;;;;6036252;23;20993;-77
2023/01/09 12:24:33;;;;;;;12.33;11.10;;;7.80;99.90;;;;;;6038790;23;20438;-77
2023/01/09 12:27:14;;;;;;;14.03;12.17;;;7.80;99.90;;;;;;6039891;23;20458;-76
2023/01/09 12:30:10;;;;;;;13.37;10.83;;;7.80;99.90;;;;;;6038882;23;20424;-76
2023/01/09 12:32:48;;;;;;;11.37;10.27;;;7.80;99.90;;;;;;6030152;23;20520;-77
2023/01/09 12:35:25;;;;;;;14.03;12.30;;;7.80;99.90;;;;;;6038581;23;20491;-75
2023/01/09 12:38:30;;;;;;;11.27;9.93;;;7.80;99.90;;;;;;6038769;23;20416;-75
2023/01/09 12:41:24;;;;;;;11.87;10.10;;;7.80;99.90;;;;;;6011992;23;20462;-76
2023/01/09 12:44:22;;;;;;;12.37;10.37;;;7.90;99.90;;;;;;6038329;23;20939;-76
2023/01/09 12:47:17;;;;;;;9.20;8.20;;;7.90;99.90;;;;;;6010846;23;20775;-77
2023/01/09 12:49:53;;;;;;;9.40;8.40;;;7.90;99.90;;;;;;6049631;23;20416;-76
2023/01/09 12:52:25;;;;;;;11.80;9.30;;;7.90;99.90;;;;;;6014789;23;20486;-77
2023/01/09 12:55:02;;;;;;;11.67;8.10;;;7.90;99.90;;;;;;6049822;23;20460;-77
2023/01/09 12:57:39;;;;;;;10.27;9.00;;;7.90;99.90;;;;;;6014876;23;20420;-76
2023/01/09 13:00:17;;;;;;;10.50;8.73;;;7.80;99.90;;;;;;6014735;23;20580;-76
2023/01/09 13:02:51;;;;;;;9.17;7.93;;;7.80;99.90;;;;;;6014988;23;20450;-77
2023/01/09 13:05:37;;;;;;;9.93;8.70;;;7.80;99.90;;;;;;6014849;23;20436;-77
2023/01/09 13:08:09;;;;;;;9.63;7.97;;;7.80;99.90;;;;;;6014720;23;20408;-77
2023/01/09 13:10:41;;;;;;;9.80;6.63;;;7.80;99.90;;;;;;6049434;23;20500;-76
2023/01/09 13:13:15;;;;;;;7.20;6.40;;;7.80;99.90;;;;;;6014621;23;20510;-77
2023/01/09 13:15:45;;;;;;;6.50;5.80;;;7.90;99.90;;;;;;6049270;23;20528;-77
2023/01/09 13:18:19;;;;;;;8.27;5.77;;;7.80;99.90;;;;;;6040199;23;20499;-77
2023/01/09 13:20:49;;;;;;;6.20;5.20;;;7.80;99.90;;;;;;6050158;23;20390;-77
2023/01/09 13:23:23;;;;;;;7.13;6.43;;;7.80;99.90;;;;;;6049660;23;20417;-77
2023/01/09 13:25:56;;;;;;;7.73;6.00;;;7.80;99.90;;;;;;6014596;23;20438;-77
2023/01/09 13:28:30;;;;;;;6.93;6.23;;;7.80;99.90;;;;;;6014634;23;20475;-77
2023/01/09 13:31:31;;;;;;;7.70;6.40;;;7.80;99.90;;;;;;6049318;23;20384;-76
2023/01/09 13:34:03;;;;;;;7.33;6.60;;;7.80;99.90;;;;;;6000399;23;20443;-77